createdAt,value
2023-01-01T00:01:59.656Z,98593.59
2023-01-01T00:04:28.971Z,98582.59
2023-01-01T00:06:58.449Z,98578.38
2023-01-01T00:09:43.950Z,98577.88
2023-01-01T00:12:12.351Z,98580.66
2023-01-01T00:14:43.013Z,98578.13
2023-01-01T00:17:11.365Z,98582.94
2023-01-01T00:19:39.754Z,98589.47
2023-01-01T00:22:35.274Z,98581.66
2023-01-01T00:24:57.513Z,98590.25
2023-01-01T00:27:25.746Z,98585.72
2023-01-01T00:29:53.822Z,98583.69
2023-01-01T00:32:23.012Z,98588.25
2023-01-01T00:34:51.381Z,98583.41
2023-01-01T00:37:20.864Z,98591.53
2023-01-01T00:39:48.959Z,98596.31
2023-01-01T00:42:17.061Z,98604.41
2023-01-01T00:44:45.209Z,98600.38
2023-01-01T00:47:13.368Z,98595.31
2023-01-01T00:49:41.496Z,98603.41
2023-01-01T00:52:09.622Z,98583.69
2023-01-01T00:54:39.216Z,98591.28
2023-01-01T00:57:07.448Z,98594.31
2023-01-01T00:59:35.697Z,98593.31
2023-01-01T01:02:04.011Z,98583.69
2023-01-01T01:04:32.225Z,98583.16
2023-01-01T01:07:00.313Z,98582.94
2023-01-01T01:09:28.666Z,98579.13
2023-01-01T01:12:17.672Z,98578.84
2023-01-01T01:14:46.275Z,98577.28
2023-01-01T01:17:14.329Z,98584.41
2023-01-01T01:19:42.513Z,98590.44
2023-01-01T01:22:10.683Z,98583.59
2023-01-01T01:24:38.791Z,98587.69
2023-01-01T01:27:08.366Z,98581.56
2023-01-01T01:29:36.490Z,98577.94
2023-01-01T01:32:04.977Z,98579.91
2023-01-01T01:34:33.088Z,98582.75
2023-01-01T01:37:01.201Z,98593.38
2023-01-01T01:39:29.366Z,98587.34
2023-01-01T01:41:57.615Z,98579.97
2023-01-01T01:44:55.921Z,98580.22
2023-01-01T01:47:33.845Z,98573.16
2023-01-01T01:50:08.414Z,98568.13
2023-01-01T01:52:39.198Z,98572.19
2023-01-01T01:55:11.038Z,98566.09
2023-01-01T01:57:40.406Z,98569.41
2023-01-01T02:00:12.085Z,98575.03
2023-01-01T02:02:44.802Z,98577.84
2023-01-01T02:05:13.490Z,98577.56
2023-01-01T02:07:42.488Z,98572.69
2023-01-01T02:10:11.123Z,98568.88
2023-01-01T02:12:39.428Z,98571.94
2023-01-01T02:15:10.765Z,98572.94
2023-01-01T02:17:45.864Z,98568.69
2023-01-01T02:20:30.962Z,98577.63
2023-01-01T02:23:33.979Z,98566.25
2023-01-01T02:26:15.274Z,98567.50
2023-01-01T02:28:55.289Z,98563.69
2023-01-01T02:31:27.933Z,98567.16
2023-01-01T02:34:02.304Z,98561.63
2023-01-01T02:36:34.790Z,98557.16
2023-01-01T02:39:06.313Z,98560.66
2023-01-01T02:41:40.147Z,98559.44
2023-01-01T02:44:09.736Z,98548.03
2023-01-01T02:46:38.018Z,98555.13
2023-01-01T02:49:10.182Z,98551.56
2023-01-01T02:51:52.360Z,98555.38
2023-01-01T02:54:32.467Z,98539.22
2023-01-01T02:57:10.598Z,98542.50
2023-01-01T03:00:16.793Z,98540.69
2023-01-01T03:02:56.028Z,98531.25
2023-01-01T03:05:32.584Z,98551.50
2023-01-01T03:08:08.128Z,98545.09
2023-01-01T03:10:44.273Z,98552.25
2023-01-01T03:13:19.207Z,98539.72
2023-01-01T03:15:59.932Z,98549.44
2023-01-01T03:18:35.477Z,98541.16
2023-01-01T03:21:06.391Z,98537.66
2023-01-01T03:23:38.767Z,98541.91
2023-01-01T03:26:11.026Z,98535.94
2023-01-01T03:28:44.952Z,98544.81
2023-01-01T03:31:19.403Z,98553.84
2023-01-01T03:33:50.649Z,98544.00
2023-01-01T03:36:22.777Z,98555.00
2023-01-01T03:38:54.302Z,98550.59
2023-01-01T03:41:28.897Z,98557.59
2023-01-01T03:44:06.354Z,98566.38
2023-01-01T03:46:38.052Z,98563.22
2023-01-01T03:49:08.065Z,98565.19
2023-01-01T03:51:58.123Z,98554.38
2023-01-01T03:54:36.214Z,98559.69
2023-01-01T03:57:11.153Z,98548.56
2023-01-01T03:59:45.087Z,98555.88
2023-01-01T04:02:20.359Z,98545.78
2023-01-01T04:04:49.401Z,98552.59
2023-01-01T04:07:17.988Z,98563.97
2023-01-01T04:09:51.058Z,98558.94
2023-01-01T04:12:20.237Z,98572.53
2023-01-01T04:14:48.970Z,98560.19
2023-01-01T04:17:18.571Z,98572.00
2023-01-01T04:19:53.139Z,98572.81
2023-01-01T04:22:23.553Z,98573.31
2023-01-01T04:24:52.063Z,98580.88
2023-01-01T04:27:21.090Z,98585.88
2023-01-01T04:29:49.221Z,98587.19
2023-01-01T04:32:18.773Z,98579.84
2023-01-01T04:34:46.952Z,98585.16
2023-01-01T04:37:15.199Z,98568.00
2023-01-01T04:39:43.401Z,98581.81
2023-01-01T04:42:11.481Z,98583.88
2023-01-01T04:44:39.702Z,98585.28
2023-01-01T04:47:07.990Z,98571.78
2023-01-01T04:49:38.143Z,98586.44
2023-01-01T04:52:07.226Z,98564.03
2023-01-01T04:54:35.295Z,98579.19
2023-01-01T04:57:03.440Z,98580.72
2023-01-01T04:59:31.857Z,98565.75
2023-01-01T05:02:00.280Z,98572.38
2023-01-01T05:04:28.549Z,98589.28
2023-01-01T05:06:58.040Z,98587.28
2023-01-01T05:09:26.122Z,98580.34
2023-01-01T05:11:55.554Z,98577.53
2023-01-01T05:14:23.666Z,98580.25
2023-01-01T05:16:51.931Z,98593.72
2023-01-01T05:19:20.143Z,98595.13
2023-01-01T05:21:48.221Z,98598.06
2023-01-01T05:24:17.767Z,98598.38
2023-01-01T05:26:46.413Z,98596.13
2023-01-01T05:29:16.888Z,98597.69
2023-01-01T05:31:46.143Z,98600.38
2023-01-01T05:34:14.503Z,98605.81
2023-01-01T05:36:42.610Z,98602.06
2023-01-01T05:39:13.212Z,98599.41
2023-01-01T05:41:43.449Z,98604.56
2023-01-01T05:44:12.052Z,98599.72
2023-01-01T05:46:40.285Z,98602.53
2023-01-01T05:49:11.755Z,98563.38
2023-01-01T05:54:07.353Z,98591.53
2023-01-01T05:56:35.549Z,98598.28
2023-01-01T05:59:05.175Z,98583.69
2023-01-01T06:01:37.623Z,98610.94
2023-01-01T06:04:11.652Z,98615.88
2023-01-01T06:06:39.748Z,98615.13
2023-01-01T06:09:07.932Z,98622.97
2023-01-01T06:11:36.078Z,98633.72
2023-01-01T06:14:05.593Z,98646.28
2023-01-01T06:16:33.657Z,98657.31
2023-01-01T06:19:01.787Z,98652.81
2023-01-01T06:21:30.607Z,98653.66
2023-01-01T06:23:59.973Z,98651.28
2023-01-01T06:26:30.539Z,98654.09
2023-01-01T06:28:59.413Z,98672.25
2023-01-01T06:31:34.051Z,98668.75
2023-01-01T06:34:05.329Z,98708.06
2023-01-01T06:36:33.674Z,98709.56
2023-01-01T06:39:03.623Z,98699.22
2023-01-01T06:41:31.929Z,98701.06
2023-01-01T06:44:02.084Z,98703.56
2023-01-01T06:46:33.323Z,98694.97
2023-01-01T06:49:04.776Z,98701.81
2023-01-01T06:51:34.697Z,98687.50
2023-01-01T06:54:04.751Z,98705.63
2023-01-01T06:56:33.290Z,98696.69
2023-01-01T06:59:02.170Z,98707.22
2023-01-01T07:01:35.878Z,98701.19
2023-01-01T07:04:07.877Z,98710.53
2023-01-01T07:06:36.681Z,98708.06
2023-01-01T07:09:05.373Z,98707.03
2023-01-01T07:11:34.167Z,98715.22
2023-01-01T07:14:03.272Z,98720.16
2023-01-01T07:16:32.817Z,98708.66
2023-01-01T07:19:01.400Z,98717.03
2023-01-01T07:21:31.743Z,98730.63
2023-01-01T07:24:01.193Z,98747.44
2023-01-01T07:26:30.714Z,98748.47
2023-01-01T07:29:06.284Z,98743.06
2023-01-01T07:31:38.580Z,98742.69
2023-01-01T07:34:06.954Z,98737.91
2023-01-01T07:36:35.355Z,98748.41
2023-01-01T07:39:03.516Z,98749.53
2023-01-01T07:41:31.776Z,98746.38
2023-01-01T07:44:00.546Z,98749.69
2023-01-01T07:46:29.531Z,98747.88
2023-01-01T07:49:00.879Z,98760.78
2023-01-01T07:51:29.070Z,98771.94
2023-01-01T07:54:02.263Z,98788.16
2023-01-01T07:56:35.081Z,98777.03
2023-01-01T07:59:03.232Z,98778.66
2023-01-01T08:01:31.644Z,98775.09
2023-01-01T08:04:01.152Z,98770.88
2023-01-01T08:06:29.258Z,98788.75
2023-01-01T08:08:57.356Z,98780.19
2023-01-01T08:11:25.556Z,98774.06
2023-01-01T08:13:53.620Z,98777.31
2023-01-01T08:16:21.850Z,98781.50
2023-01-01T08:18:50.026Z,98787.63
2023-01-01T08:21:19.616Z,98801.34
2023-01-01T08:23:47.699Z,98809.47
2023-01-01T08:26:17.917Z,98819.47
2023-01-01T08:28:47.854Z,98818.66
2023-01-01T08:31:19.090Z,98799.25
2023-01-01T08:33:47.213Z,98797.63
2023-01-01T08:36:16.532Z,98808.72
2023-01-01T08:38:45.982Z,98816.88
2023-01-01T08:41:14.255Z,98828.53
2023-01-01T08:43:42.378Z,98814.75
2023-01-01T08:46:10.602Z,98826.25
2023-01-01T08:48:38.715Z,98825.88
2023-01-01T08:51:07.318Z,98830.44
2023-01-01T08:53:35.467Z,98839.97
2023-01-01T08:56:08.041Z,98850.78
2023-01-01T08:58:37.666Z,98853.66
2023-01-01T09:01:06.978Z,98847.91
2023-01-01T09:03:35.695Z,98855.06
2023-01-01T09:06:03.905Z,98861.38
2023-01-01T09:08:32.457Z,98857.75
2023-01-01T09:11:02.905Z,98849.22
2023-01-01T09:13:34.322Z,98860.78
2023-01-01T09:16:02.503Z,98859.09
2023-01-01T09:18:32.691Z,98855.75
2023-01-01T09:21:00.752Z,98842.38
2023-01-01T09:23:28.846Z,98859.84
2023-01-01T09:25:58.301Z,98845.06
2023-01-01T09:28:28.829Z,98854.63
2023-01-01T09:30:58.397Z,98849.00
2023-01-01T09:33:31.096Z,98847.97
2023-01-01T09:36:13.302Z,98834.28
2023-01-01T09:38:41.513Z,98829.47
2023-01-01T09:41:21.778Z,98825.72
2023-01-01T09:44:00.618Z,98809.13
2023-01-01T09:46:32.056Z,98811.03
2023-01-01T09:49:04.433Z,98821.47
2023-01-01T09:51:48.762Z,98812.00
2023-01-01T09:54:28.071Z,98820.22
2023-01-01T09:56:59.250Z,98825.28
2023-01-01T09:59:27.833Z,98822.00
2023-01-01T10:02:01.037Z,98819.53
2023-01-01T10:04:42.824Z,98821.31
2023-01-01T10:07:17.361Z,98820.13
2023-01-01T10:09:56.365Z,98823.75
2023-01-01T10:12:36.110Z,98817.47
2023-01-01T10:15:14.023Z,98806.72
2023-01-01T10:17:47.734Z,98790.28
2023-01-01T10:20:21.268Z,98779.19
2023-01-01T10:22:53.820Z,98775.22
2023-01-01T10:25:26.049Z,98771.19
2023-01-01T10:27:59.816Z,98768.16
2023-01-01T10:30:30.171Z,98762.81
2023-01-01T10:33:00.643Z,98787.63
2023-01-01T10:35:35.943Z,98790.44
2023-01-01T10:38:05.644Z,98788.66
2023-01-01T10:40:34.855Z,98800.53
2023-01-01T10:43:04.401Z,98794.06
2023-01-01T10:45:35.538Z,98789.81
2023-01-01T10:48:17.228Z,98792.41
2023-01-01T10:50:51.290Z,98786.63
2023-01-01T10:53:28.778Z,98774.19
2023-01-01T10:56:13.062Z,98780.81
2023-01-01T10:58:46.510Z,98765.84
2023-01-01T11:01:21.989Z,98775.47
2023-01-01T11:04:00.653Z,98778.84
2023-01-01T11:06:32.953Z,98772.69
2023-01-01T11:09:07.080Z,98766.13
2023-01-01T11:11:44.211Z,98761.03
2023-01-01T11:14:21.869Z,98769.13
2023-01-01T11:16:50.643Z,98767.56
2023-01-01T11:19:25.136Z,98742.09
2023-01-01T11:21:53.287Z,98730.59
2023-01-01T11:24:23.087Z,98727.81
2023-01-01T11:26:54.848Z,98733.03
2023-01-01T11:29:28.629Z,98745.13
2023-01-01T11:31:58.197Z,98733.84
2023-01-01T11:34:34.169Z,98735.41
2023-01-01T11:37:20.576Z,98733.59
2023-01-01T11:39:51.495Z,98737.78
2023-01-01T11:42:22.792Z,98742.25
2023-01-01T11:44:54.394Z,98740.53
2023-01-01T11:47:30.338Z,98748.31
2023-01-01T11:50:05.922Z,98731.81
2023-01-01T11:52:40.064Z,98725.34
2023-01-01T11:55:19.914Z,98724.03
2023-01-01T11:58:04.603Z,98720.28
2023-01-01T12:00:37.195Z,98720.41
2023-01-01T12:03:16.741Z,98722.34
2023-01-01T12:05:51.759Z,98723.59
2023-01-01T12:08:29.812Z,98735.00
2023-01-01T12:11:04.542Z,98731.72
2023-01-01T12:13:39.616Z,98742.03
2023-01-01T12:16:13.434Z,98739.50
2023-01-01T12:18:47.998Z,98741.44
2023-01-01T12:21:24.407Z,98743.34
2023-01-01T12:23:52.884Z,98737.09
2023-01-01T12:26:25.653Z,98731.47
2023-01-01T12:29:28.934Z,98736.47
2023-01-01T12:32:05.693Z,98735.63
2023-01-01T12:34:40.101Z,98734.53
2023-01-01T12:37:34.523Z,98732.72
2023-01-01T12:40:38.771Z,98737.03
2023-01-01T12:43:11.208Z,98734.41
2023-01-01T12:46:05.537Z,98736.84
2023-01-01T12:48:55.281Z,98735.97
2023-01-01T12:51:37.246Z,98746.81
2023-01-01T12:54:36.304Z,98740.91
2023-01-01T12:57:10.784Z,98737.94
2023-01-01T12:59:44.865Z,98733.50
2023-01-01T13:02:17.752Z,98732.91
2023-01-01T13:04:48.736Z,98738.34
2023-01-01T13:07:25.077Z,98733.44
2023-01-01T13:09:54.960Z,98739.59
2023-01-01T13:12:25.577Z,98726.78
2023-01-01T13:14:53.736Z,98723.63
2023-01-01T13:17:23.986Z,98723.97
2023-01-01T13:19:59.121Z,98726.16
2023-01-01T13:22:44.371Z,98729.78
2023-01-01T13:25:25.151Z,98727.59
2023-01-01T13:28:12.148Z,98743.03
2023-01-01T13:30:53.052Z,98761.19
2023-01-01T13:33:27.287Z,98747.66
2023-01-01T13:36:38.167Z,98751.59
2023-01-01T13:39:08.431Z,98772.50
2023-01-01T13:41:44.542Z,98765.22
2023-01-01T13:44:18.680Z,98764.75
2023-01-01T13:47:09.911Z,98768.81
2023-01-01T13:49:54.606Z,98769.16
2023-01-01T13:52:53.835Z,98787.88
2023-01-01T13:55:52.699Z,98783.31
2023-01-01T13:58:48.506Z,98789.25
2023-01-01T14:01:36.809Z,98784.69
2023-01-01T14:04:13.414Z,98788.25
2023-01-01T14:06:46.389Z,98800.38
2023-01-01T14:09:15.798Z,98794.00
2023-01-01T14:11:44.185Z,98790.66
2023-01-01T14:14:28.401Z,98788.84
2023-01-01T14:17:00.200Z,98787.63
2023-01-01T14:19:29.247Z,98792.63
2023-01-01T14:21:57.876Z,98789.56
2023-01-01T14:24:27.578Z,98796.97
2023-01-01T14:26:56.573Z,98799.00
2023-01-01T14:29:29.195Z,98801.78
2023-01-01T14:32:01.141Z,98801.31
2023-01-01T14:34:32.523Z,98808.66
2023-01-01T14:37:02.523Z,98803.31
2023-01-01T14:39:32.133Z,98797.72
2023-01-01T14:42:03.855Z,98798.88
2023-01-01T14:44:37.266Z,98804.78
2023-01-01T14:47:06.477Z,98812.16
2023-01-01T14:49:38.397Z,98797.47
2023-01-01T14:52:10.468Z,98820.03
2023-01-01T14:54:42.381Z,98821.56
2023-01-01T14:57:15.112Z,98823.56
2023-01-01T14:59:49.469Z,98826.84
2023-01-01T15:02:22.290Z,98823.84
2023-01-01T15:04:51.027Z,98833.16
2023-01-01T15:07:23.293Z,98835.22
2023-01-01T15:09:52.075Z,98834.88
2023-01-01T15:12:21.129Z,98838.00
2023-01-01T15:14:52.786Z,98829.38
2023-01-01T15:17:22.712Z,98838.78
2023-01-01T15:20:03.392Z,98840.53
2023-01-01T15:22:33.917Z,98838.25
2023-01-01T15:25:03.363Z,98846.53
2023-01-01T15:27:34.132Z,98846.59
2023-01-01T15:30:11.650Z,98858.59
2023-01-01T15:32:42.288Z,98849.22
2023-01-01T15:35:27.752Z,98857.09
2023-01-01T15:38:03.466Z,98865.38
2023-01-01T15:40:36.111Z,98849.56
2023-01-01T15:43:15.625Z,98867.75
2023-01-01T15:45:54.001Z,98862.38
2023-01-01T15:48:27.932Z,98863.31
2023-01-01T15:51:06.365Z,98868.69
2023-01-01T15:53:47.158Z,98877.47
2023-01-01T15:56:16.389Z,98881.31
2023-01-01T15:58:51.625Z,98884.81
2023-01-01T16:01:24.062Z,98881.66
2023-01-01T16:03:58.949Z,98885.13
2023-01-01T16:06:27.264Z,98878.47
2023-01-01T16:08:55.392Z,98867.28
2023-01-01T16:11:23.655Z,98879.75
2023-01-01T16:13:51.704Z,98882.13
2023-01-01T16:16:26.760Z,98879.59
2023-01-01T16:18:56.505Z,98874.50
2023-01-01T16:21:27.834Z,98891.44
2023-01-01T16:23:56.533Z,98892.44
2023-01-01T16:26:24.579Z,98889.91
2023-01-01T16:28:53.148Z,98890.75
2023-01-01T16:31:28.024Z,98897.78
2023-01-01T16:33:58.658Z,98900.50
2023-01-01T16:36:29.278Z,98890.91
2023-01-01T16:39:05.269Z,98895.19
2023-01-01T16:41:33.480Z,98900.22
2023-01-01T16:44:01.600Z,98914.50
2023-01-01T16:46:33.659Z,98915.22
2023-01-01T16:49:02.042Z,98922.97
2023-01-01T16:51:33.849Z,98919.44
2023-01-01T16:54:02.034Z,98923.34
2023-01-01T16:56:30.485Z,98925.31
2023-01-01T16:59:03.292Z,98913.41
2023-01-01T17:01:33.483Z,98905.72
2023-01-01T17:04:01.750Z,98907.72
2023-01-01T17:06:29.902Z,98906.38
2023-01-01T17:08:57.996Z,98905.38
2023-01-01T17:11:26.108Z,98901.59
2023-01-01T17:13:54.212Z,98904.31
2023-01-01T17:16:27.290Z,98888.09
2023-01-01T17:19:17.258Z,98891.19
2023-01-01T17:21:47.724Z,98888.09
2023-01-01T17:24:16.624Z,98877.22
2023-01-01T17:26:44.911Z,98891.19
2023-01-01T17:29:12.963Z,98887.50
2023-01-01T17:31:41.069Z,98900.16
2023-01-01T17:34:14.299Z,98895.75
2023-01-01T17:36:43.713Z,98892.00
2023-01-01T17:39:12.506Z,98895.44
2023-01-01T17:41:41.104Z,98885.22
2023-01-01T17:44:09.536Z,98885.25
2023-01-01T17:46:37.862Z,98893.06
2023-01-01T17:49:06.569Z,98890.50
2023-01-01T17:51:36.008Z,98880.84
2023-01-01T17:54:06.520Z,98886.25
2023-01-01T17:56:34.622Z,98901.09
2023-01-01T17:59:04.411Z,98904.53
2023-01-01T18:01:35.498Z,98907.88
2023-01-01T18:04:06.306Z,98919.75
2023-01-01T18:06:41.511Z,98920.66
2023-01-01T18:09:12.762Z,98916.91
2023-01-01T18:11:41.863Z,98924.47
2023-01-01T18:14:10.366Z,98926.81
2023-01-01T18:16:40.497Z,98923.28
2023-01-01T18:19:08.834Z,98927.13
2023-01-01T18:21:38.334Z,98916.25
2023-01-01T18:24:12.055Z,98932.09
2023-01-01T18:26:40.172Z,98944.03
2023-01-01T18:29:08.367Z,98934.88
2023-01-01T18:31:37.069Z,98938.41
2023-01-01T18:34:07.063Z,98934.50
2023-01-01T18:36:36.233Z,98924.75
2023-01-01T18:39:14.575Z,98920.34
2023-01-01T18:42:19.257Z,98909.38
2023-01-01T18:44:47.821Z,98919.41
2023-01-01T18:47:17.746Z,98907.66
2023-01-01T18:49:49.887Z,98911.03
2023-01-01T18:52:25.746Z,98920.75
2023-01-01T18:55:04.126Z,98927.53
2023-01-01T18:57:32.935Z,98934.88
2023-01-01T19:00:02.059Z,98935.63
2023-01-01T19:02:38.120Z,98932.75
2023-01-01T19:05:19.013Z,98927.28
2023-01-01T19:07:53.006Z,98942.28
2023-01-01T19:10:22.527Z,98939.31
2023-01-01T19:12:54.985Z,98948.41
2023-01-01T19:15:23.773Z,98932.13
2023-01-01T19:17:54.843Z,98940.13
2023-01-01T19:20:24.814Z,98925.03
2023-01-01T19:22:53.025Z,98927.44
2023-01-01T19:25:36.124Z,98933.44
2023-01-01T19:28:35.709Z,98936.53
2023-01-01T19:31:05.485Z,98936.56
2023-01-01T19:33:33.675Z,98946.63
2023-01-01T19:36:01.900Z,98940.78
2023-01-01T19:38:29.960Z,98944.09
2023-01-01T19:40:59.483Z,98949.03
2023-01-01T19:43:27.664Z,98961.41
2023-01-01T19:45:55.859Z,98971.81
2023-01-01T19:48:23.958Z,98966.59
2023-01-01T19:50:52.396Z,98974.56
2023-01-01T19:53:20.427Z,98974.38
2023-01-01T19:55:48.604Z,98974.94
2023-01-01T19:58:19.894Z,98972.09
2023-01-01T20:00:48.171Z,98971.63
2023-01-01T20:03:52.305Z,98979.03
2023-01-01T20:06:05.016Z,98971.97
2023-01-01T20:08:33.139Z,98980.44
2023-01-01T20:11:01.581Z,98976.59
2023-01-01T20:13:31.121Z,98981.28
2023-01-01T20:15:59.491Z,98978.94
2023-01-01T20:18:27.611Z,98985.91
2023-01-01T20:21:12.989Z,98989.28
2023-01-01T20:23:41.919Z,98993.09
2023-01-01T20:26:10.301Z,99001.91
2023-01-01T20:28:57.407Z,98993.31
2023-01-01T20:31:25.557Z,99000.97
2023-01-01T20:33:53.647Z,98987.66
2023-01-01T20:36:39.213Z,98985.31
2023-01-01T20:39:07.334Z,98982.69
2023-01-01T20:41:35.588Z,98977.56
2023-01-01T20:44:05.073Z,98984.00
2023-01-01T20:46:36.243Z,98984.41
2023-01-01T20:49:04.466Z,98996.88
2023-01-01T20:51:32.623Z,98986.94
2023-01-01T20:54:00.800Z,98987.63
2023-01-01T20:56:29.029Z,98979.88
2023-01-01T20:59:01.820Z,98969.16
2023-01-01T21:01:37.385Z,98980.56
2023-01-01T21:04:05.962Z,98975.09
2023-01-01T21:06:34.269Z,98973.56
2023-01-01T21:09:05.076Z,98977.34
2023-01-01T21:11:33.294Z,98977.56
2023-01-01T21:14:01.553Z,98991.16
2023-01-01T21:16:33.734Z,98983.69
2023-01-01T21:19:04.770Z,98995.75
2023-01-01T21:21:42.265Z,99000.97
2023-01-01T21:24:21.554Z,98998.50
2023-01-01T21:26:51.818Z,98998.19
2023-01-01T21:29:22.492Z,98992.03
2023-01-01T21:31:54.117Z,98994.19
2023-01-01T21:34:35.721Z,98994.13
2023-01-01T21:37:14.753Z,98986.75
2023-01-01T21:39:42.994Z,98985.94
2023-01-01T21:42:24.549Z,98979.59
2023-01-01T21:44:57.759Z,98981.97
2023-01-01T21:47:26.975Z,98992.00
2023-01-01T21:49:57.514Z,98988.03
2023-01-01T21:52:26.303Z,98995.94
2023-01-01T21:54:55.772Z,98988.56
2023-01-01T21:57:25.905Z,98990.56
2023-01-01T21:59:54.923Z,98990.38
2023-01-01T22:02:38.485Z,98984.75
2023-01-01T22:05:30.830Z,98984.75
2023-01-01T22:08:00.158Z,98988.88
2023-01-01T22:10:35.389Z,98998.97
2023-01-01T22:13:03.786Z,98998.06
2023-01-01T22:15:39.325Z,98992.84
2023-01-01T22:18:27.102Z,98988.28
2023-01-01T22:20:58.016Z,98994.19
2023-01-01T22:23:41.699Z,98990.72
2023-01-01T22:26:18.711Z,98986.06
2023-01-01T22:28:50.214Z,98984.09
2023-01-01T22:31:21.539Z,98986.66
2023-01-01T22:33:51.045Z,98988.06
2023-01-01T22:36:25.524Z,98992.69
2023-01-01T22:38:55.660Z,98990.53
2023-01-01T22:41:23.795Z,98988.19
2023-01-01T22:43:58.038Z,98985.25
2023-01-01T22:46:30.284Z,98986.00
2023-01-01T22:49:01.142Z,98984.59
2023-01-01T22:51:38.538Z,98980.53
2023-01-01T22:54:06.807Z,98975.78
2023-01-01T22:56:35.012Z,98982.53
2023-01-01T22:59:05.106Z,98984.41
2023-01-01T23:01:33.239Z,98987.19
2023-01-01T23:04:01.408Z,98982.41
2023-01-01T23:06:31.065Z,98984.69
2023-01-01T23:08:59.407Z,98984.53
2023-01-01T23:11:28.635Z,98985.78
2023-01-01T23:14:22.671Z,98983.16
2023-01-01T23:16:50.877Z,98978.91
2023-01-01T23:19:20.098Z,98976.47
2023-01-01T23:21:49.606Z,98976.47
2023-01-01T23:24:21.196Z,98975.69
2023-01-01T23:26:50.646Z,98982.13
2023-01-01T23:29:20.275Z,98976.91
2023-01-01T23:31:49.725Z,98976.78
2023-01-01T23:34:18.336Z,98978.31
2023-01-01T23:36:46.689Z,98973.25
2023-01-01T23:39:16.128Z,98969.25
2023-01-01T23:41:44.203Z,98966.97
2023-01-01T23:44:12.358Z,98970.19
2023-01-01T23:46:40.929Z,98969.09
2023-01-01T23:49:09.447Z,98964.53
2023-01-01T23:51:39.341Z,98966.50
2023-01-01T23:54:07.476Z,98962.34
2023-01-01T23:56:37.142Z,98960.22
2023-01-01T23:59:05.368Z,98954.06
